createdAt,value
2023-01-11T18:07:24.516Z,977.30
2023-01-11T18:08:24.422Z,977.28
2023-01-11T18:09:24.335Z,977.26
2023-01-11T18:10:24.244Z,977.26
2023-01-11T18:11:24.168Z,977.30
2023-01-11T18:12:24.091Z,977.28
2023-01-11T18:13:24.002Z,977.29
2023-01-11T18:14:23.922Z,977.34
2023-01-11T18:15:23.837Z,977.33
2023-01-11T18:16:23.802Z,977.36
2023-01-11T18:17:23.677Z,977.38
2023-01-11T18:18:23.609Z,977.38
2023-01-11T18:19:23.518Z,977.41
2023-01-11T18:20:23.443Z,977.45
2023-01-11T18:21:23.354Z,977.44
2023-01-11T18:22:23.289Z,977.47
2023-01-11T18:23:23.196Z,977.51
2023-01-11T18:24:23.116Z,977.51
2023-01-11T18:25:23.023Z,977.55
2023-01-11T18:26:22.934Z,977.52
2023-01-11T18:27:23.529Z,977.55
2023-01-11T18:28:22.777Z,977.57
2023-01-11T18:29:22.722Z,977.55
2023-01-11T18:30:22.612Z,977.55
2023-01-11T18:31:22.564Z,977.53
2023-01-11T18:32:22.444Z,977.52
2023-01-11T18:33:22.370Z,977.54
2023-01-11T18:34:22.280Z,977.57
2023-01-11T18:35:22.203Z,977.59
2023-01-11T18:36:22.125Z,977.63
2023-01-11T18:37:22.036Z,977.60
2023-01-11T18:38:21.958Z,977.59
2023-01-11T18:39:21.872Z,977.57
2023-01-11T18:40:21.812Z,977.56
2023-01-11T18:41:21.709Z,977.56
2023-01-11T18:42:21.633Z,977.54
2023-01-11T18:43:21.544Z,977.50
2023-01-11T18:44:21.468Z,977.54
2023-01-11T18:45:21.396Z,977.50
2023-01-11T18:46:21.352Z,977.52
2023-01-11T18:47:21.219Z,977.52
2023-01-11T18:48:21.140Z,977.50
2023-01-11T18:49:21.068Z,977.54
2023-01-11T18:50:20.990Z,977.54
2023-01-11T18:51:20.906Z,977.52
2023-01-11T18:52:20.812Z,977.56
2023-01-11T18:53:20.742Z,977.57
2023-01-11T18:54:20.644Z,977.64
2023-01-11T18:55:20.564Z,977.66
2023-01-11T18:56:20.482Z,977.70
2023-01-11T18:57:20.397Z,977.67
2023-01-11T18:58:20.331Z,977.68
2023-01-11T18:59:20.232Z,977.64
2023-01-11T19:00:20.159Z,977.67
2023-01-11T19:01:20.156Z,977.63
2023-01-11T19:03:19.905Z,977.69
2023-01-11T19:04:19.828Z,977.67
2023-01-11T19:05:19.743Z,977.68
2023-01-11T19:06:19.672Z,977.66
2023-01-11T19:07:19.582Z,977.73
2023-01-11T19:08:19.499Z,977.72
2023-01-11T19:09:19.435Z,977.74
2023-01-11T19:10:19.355Z,977.78
2023-01-11T19:11:19.263Z,977.74
2023-01-11T19:12:19.190Z,977.77
2023-01-11T19:13:19.092Z,977.78
2023-01-11T19:14:19.014Z,977.80
2023-01-11T19:15:18.922Z,977.81
2023-01-11T19:16:18.843Z,977.84
2023-01-11T19:17:18.769Z,977.86
2023-01-11T19:18:18.680Z,977.86
2023-01-11T19:19:18.600Z,977.85
2023-01-11T19:20:18.520Z,977.91
2023-01-11T19:21:18.437Z,977.91
2023-01-11T19:22:18.353Z,977.94
2023-01-11T19:23:18.275Z,977.92
2023-01-11T19:24:18.190Z,977.86
2023-01-11T19:25:18.101Z,977.98
2023-01-11T19:26:18.030Z,977.99
2023-01-11T19:27:17.986Z,978.03
2023-01-11T19:28:17.875Z,978.04
2023-01-11T19:29:17.787Z,978.01
2023-01-11T19:30:17.698Z,978.03
2023-01-11T19:31:17.665Z,978.05
2023-01-11T19:32:17.535Z,978.10
2023-01-11T19:33:17.450Z,978.13
2023-01-11T19:34:17.364Z,978.12
2023-01-11T19:35:17.282Z,978.16
2023-01-11T19:36:17.204Z,978.15
2023-01-11T19:37:17.123Z,978.17
2023-01-11T19:38:17.038Z,978.25
2023-01-11T19:39:16.954Z,978.26
2023-01-11T19:40:16.880Z,978.24
2023-01-11T19:41:16.810Z,978.24
2023-01-11T19:42:16.712Z,978.25
2023-01-11T19:43:16.633Z,978.23
2023-01-11T19:44:16.553Z,978.22
2023-01-11T19:45:16.472Z,978.25
2023-01-11T19:46:29.984Z,978.25
2023-01-11T19:47:16.328Z,978.25
2023-01-11T19:48:16.226Z,978.27
2023-01-11T19:49:16.142Z,978.26
2023-01-11T19:50:16.056Z,978.29
2023-01-11T19:51:15.976Z,978.28
2023-01-11T19:52:15.893Z,978.27
2023-01-11T19:53:15.810Z,978.29
2023-01-11T19:54:15.726Z,978.29
2023-01-11T19:55:15.644Z,978.31
2023-01-11T19:56:15.568Z,978.27
2023-01-11T19:57:15.476Z,978.34
2023-01-11T19:58:15.404Z,978.34
2023-01-11T19:59:15.322Z,978.31
2023-01-11T20:00:15.235Z,978.32
2023-01-11T20:01:15.167Z,978.33
2023-01-11T20:02:15.085Z,978.33
2023-01-11T20:03:14.989Z,978.33
2023-01-11T20:04:14.915Z,978.33
2023-01-11T20:05:14.823Z,978.33
2023-01-11T20:06:14.749Z,978.33
2023-01-11T20:07:14.665Z,978.29
2023-01-11T20:08:14.582Z,978.34
2023-01-11T20:09:14.501Z,978.30
2023-01-11T20:10:14.418Z,978.34
2023-01-11T20:11:14.332Z,978.38
2023-01-11T20:12:14.268Z,978.39
2023-01-11T20:13:14.169Z,978.39
2023-01-11T20:14:14.089Z,978.42
2023-01-11T20:15:14.004Z,978.43
2023-01-11T20:16:14.003Z,978.45
2023-01-11T20:17:13.839Z,978.38
2023-01-11T20:18:13.759Z,978.38
2023-01-11T20:19:13.690Z,978.42
2023-01-11T20:20:15.185Z,978.35
2023-01-11T20:21:13.513Z,978.34
2023-01-11T20:22:13.443Z,978.37
2023-01-11T20:23:13.352Z,978.39
2023-01-11T20:24:13.269Z,978.35
2023-01-11T20:25:13.183Z,978.41
2023-01-11T20:26:13.104Z,978.46
2023-01-11T20:27:13.072Z,978.41
2023-01-11T20:28:12.937Z,978.46
2023-01-11T20:29:12.855Z,978.50
2023-01-11T20:30:12.773Z,978.53
2023-01-11T20:31:12.767Z,978.55
2023-01-11T20:32:31.527Z,978.53
2023-01-11T20:33:12.525Z,978.58
2023-01-11T20:34:12.444Z,978.59
2023-01-11T20:35:12.383Z,978.59
2023-01-11T20:36:12.278Z,978.63
2023-01-11T20:37:12.199Z,978.67
2023-01-11T20:38:12.121Z,978.63
2023-01-11T20:39:12.033Z,978.64
2023-01-11T20:40:14.276Z,978.68
2023-01-11T20:41:11.871Z,978.66
2023-01-11T20:42:11.790Z,978.74
2023-01-11T20:43:11.710Z,978.74
2023-01-11T20:44:11.629Z,978.75
2023-01-11T20:45:11.544Z,978.79
2023-01-11T20:46:11.516Z,978.85
2023-01-11T20:47:11.382Z,978.83
2023-01-11T20:48:11.299Z,978.87
2023-01-11T20:49:11.215Z,978.86
2023-01-11T20:50:11.138Z,978.94
2023-01-11T20:51:11.045Z,978.89
2023-01-11T20:52:10.972Z,978.87
2023-01-11T20:53:10.885Z,978.92
2023-01-11T20:54:10.814Z,978.95
2023-01-11T20:55:10.719Z,979.02
2023-01-11T20:56:10.641Z,979.05
2023-01-11T20:57:10.557Z,979.04
2023-01-11T20:58:10.478Z,979.06
2023-01-11T20:59:31.371Z,979.11
2023-01-11T21:00:31.299Z,979.13
2023-01-11T21:01:10.237Z,979.15
2023-01-11T21:02:10.163Z,979.14
2023-01-11T21:03:10.108Z,979.17
2023-01-11T21:04:09.986Z,979.14
2023-01-11T21:05:09.907Z,979.12
2023-01-11T21:06:09.823Z,979.15
2023-01-11T21:07:09.737Z,979.18
2023-01-11T21:08:09.659Z,979.14
2023-01-11T21:09:09.571Z,979.08
2023-01-11T21:10:09.493Z,979.22
2023-01-11T21:11:09.408Z,979.23
2023-01-11T21:12:09.689Z,979.32
2023-01-11T21:13:09.253Z,979.28
2023-01-11T21:14:09.169Z,979.28
2023-01-11T21:15:09.076Z,979.27
2023-01-11T21:16:09.047Z,979.26
2023-01-11T21:17:08.916Z,979.27
2023-01-11T21:18:08.840Z,979.27
2023-01-11T21:19:08.757Z,979.33
2023-01-11T21:20:08.688Z,979.27
2023-01-11T21:21:08.589Z,979.30
2023-01-11T21:22:08.504Z,979.36
2023-01-11T21:23:08.428Z,979.35
2023-01-11T21:24:08.357Z,979.37
2023-01-11T21:25:08.256Z,979.33
2023-01-11T21:26:08.177Z,979.33
2023-01-11T21:27:08.156Z,979.35
2023-01-11T21:28:08.009Z,979.38
2023-01-11T21:29:07.934Z,979.32
2023-01-11T21:30:07.852Z,979.30
2023-01-11T21:31:07.809Z,979.36
2023-01-11T21:32:07.688Z,979.40
2023-01-11T21:33:07.600Z,979.36
2023-01-11T21:34:07.533Z,979.39
2023-01-11T21:35:07.439Z,979.39
2023-01-11T21:36:07.368Z,979.42
2023-01-11T21:37:07.277Z,979.40
2023-01-11T21:38:07.210Z,979.42
2023-01-11T21:39:07.108Z,979.40
2023-01-11T21:40:07.047Z,979.45
2023-01-11T21:41:06.942Z,979.42
2023-01-11T21:42:06.863Z,979.43
2023-01-11T21:43:06.786Z,979.45
2023-01-11T21:44:06.702Z,979.44
2023-01-11T21:45:06.617Z,979.46
2023-01-11T21:46:06.544Z,979.45
2023-01-11T21:47:06.452Z,979.48
2023-01-11T21:48:06.375Z,979.46
2023-01-11T21:49:06.286Z,979.47
2023-01-11T21:50:06.203Z,979.52
2023-01-11T21:51:06.121Z,979.55
2023-01-11T21:52:06.039Z,979.56
2023-01-11T21:53:05.959Z,979.52
2023-01-11T21:54:05.881Z,979.59
2023-01-11T21:55:05.793Z,979.63
2023-01-11T21:56:05.711Z,979.59
2023-01-11T21:57:05.632Z,979.57
2023-01-11T21:58:05.548Z,979.59
2023-01-11T21:59:05.467Z,979.60
2023-01-11T22:00:05.382Z,979.54
2023-01-11T22:01:05.320Z,979.58
2023-01-11T22:02:05.222Z,979.58
2023-01-11T22:03:05.131Z,979.58
2023-01-11T22:04:05.153Z,979.57
2023-01-11T22:05:04.971Z,979.58
2023-01-11T22:06:04.897Z,979.63
2023-01-11T22:07:04.811Z,979.65
2023-01-11T22:08:04.733Z,979.59
2023-01-11T22:09:04.641Z,979.64
2023-01-11T22:10:05.535Z,979.60
2023-01-11T22:11:04.473Z,979.62
2023-01-11T22:12:04.394Z,979.62
2023-01-11T22:13:04.311Z,979.67
2023-01-11T22:14:04.240Z,979.65
2023-01-11T22:15:04.147Z,979.66
2023-01-11T22:16:04.105Z,979.64
2023-01-11T22:17:04.612Z,979.64
2023-01-11T22:18:03.902Z,979.63
2023-01-11T22:19:03.822Z,979.68
2023-01-11T22:20:03.736Z,979.70
2023-01-11T22:21:03.655Z,979.71
2023-01-11T22:22:03.579Z,979.69
2023-01-11T22:23:03.550Z,979.68
2023-01-11T22:24:03.421Z,979.70
2023-01-11T22:25:03.322Z,979.66
2023-01-11T22:26:03.263Z,979.69
2023-01-11T22:27:03.178Z,979.69
2023-01-11T22:28:03.079Z,979.67
2023-01-11T22:29:03.025Z,979.69
2023-01-11T22:30:02.922Z,979.68
2023-01-11T22:31:02.840Z,979.71
2023-01-11T22:32:02.748Z,979.59
2023-01-11T22:33:02.667Z,979.66
2023-01-11T22:34:02.587Z,979.63
2023-01-11T22:35:02.506Z,979.62
2023-01-11T22:36:02.419Z,979.63
2023-01-11T22:37:02.333Z,979.65
2023-01-11T22:38:02.253Z,979.64
2023-01-11T22:39:02.253Z,979.62
2023-01-11T22:40:02.246Z,979.70
2023-01-11T22:41:02.009Z,979.69
2023-01-11T22:42:01.919Z,979.64
2023-01-11T22:43:01.845Z,979.70
2023-01-11T22:44:01.763Z,979.67
2023-01-11T22:45:01.678Z,979.66
2023-01-11T22:46:01.707Z,979.68
2023-01-11T22:47:01.521Z,979.72
2023-01-11T22:48:01.435Z,979.72
2023-01-11T22:49:01.355Z,979.73
2023-01-11T22:50:01.278Z,979.76
2023-01-11T22:51:01.184Z,979.77
2023-01-11T22:52:01.131Z,979.78
2023-01-11T22:53:01.028Z,979.78
2023-01-11T22:54:00.941Z,979.78
2023-01-11T22:55:00.943Z,979.74
2023-01-11T22:56:00.773Z,979.70
2023-01-11T22:57:00.703Z,979.68
2023-01-11T22:58:00.611Z,979.67
2023-01-11T22:59:00.522Z,979.72
2023-01-11T23:00:00.437Z,979.75
2023-01-11T23:01:00.362Z,979.69
2023-01-11T23:02:00.279Z,979.71
2023-01-11T23:03:00.299Z,979.72
2023-01-11T23:04:00.180Z,979.67
2023-01-11T23:05:00.040Z,979.76
2023-01-11T23:05:59.951Z,979.76
2023-01-11T23:06:59.875Z,979.76
2023-01-11T23:07:59.790Z,979.84
2023-01-11T23:08:59.727Z,979.82
2023-01-11T23:09:59.619Z,979.79
2023-01-11T23:10:59.549Z,979.76
2023-01-11T23:11:59.457Z,979.79
2023-01-11T23:12:59.377Z,979.79
2023-01-11T23:13:59.287Z,979.70
2023-01-11T23:14:59.220Z,979.73
2023-01-11T23:15:59.125Z,979.67
2023-01-11T23:16:59.077Z,979.77
2023-01-11T23:17:58.966Z,979.67
2023-01-11T23:18:58.886Z,979.66
2023-01-11T23:19:58.800Z,979.71
2023-01-11T23:20:58.718Z,979.65
2023-01-11T23:21:58.632Z,979.62
2023-01-11T23:22:58.548Z,979.72
2023-01-11T23:23:58.471Z,979.69
2023-01-11T23:24:58.396Z,979.67
2023-01-11T23:25:58.307Z,979.67
2023-01-11T23:26:58.311Z,979.68
2023-01-11T23:27:58.137Z,979.67
2023-01-11T23:28:58.075Z,979.74
2023-01-11T23:29:57.972Z,979.74
2023-01-11T23:30:57.893Z,979.78
2023-01-11T23:31:57.898Z,979.79
2023-01-11T23:32:57.727Z,979.84
2023-01-11T23:33:57.646Z,979.87
2023-01-11T23:34:57.563Z,979.84
2023-01-11T23:35:57.476Z,979.85
2023-01-11T23:36:57.408Z,979.80
2023-01-11T23:37:57.349Z,979.78
2023-01-11T23:38:57.231Z,979.76
2023-01-11T23:39:57.148Z,979.77
2023-01-11T23:40:57.081Z,979.73
2023-01-11T23:41:56.980Z,979.71
2023-01-11T23:42:56.910Z,979.73
2023-01-11T23:43:56.824Z,979.79
2023-01-11T23:44:56.742Z,979.68
2023-01-11T23:45:56.705Z,979.71
2023-01-11T23:46:56.579Z,979.68
2023-01-11T23:47:56.503Z,979.71
2023-01-11T23:48:56.421Z,979.71
2023-01-11T23:49:56.333Z,979.69
2023-01-11T23:50:56.248Z,979.72
2023-01-11T23:51:56.164Z,979.74
2023-01-11T23:52:56.083Z,979.75
2023-01-11T23:53:55.997Z,979.77
2023-01-11T23:54:55.917Z,979.74
2023-01-11T23:55:55.833Z,979.76
2023-01-11T23:56:55.749Z,979.70
2023-01-11T23:57:55.663Z,979.70
2023-01-11T23:58:55.599Z,979.72
2023-01-11T23:59:55.504Z,979.65
